sensor_id;sensor_type;location;lat;lon;timestamp;temperature;humidity
20174;DHT22;10246;50.620;7.232;2023-08-21T00:00:08;22.60;9.10
20174;DHT22;10246;50.620;7.232;2023-08-21T00:02:35;22.50;8.90
20174;DHT22;10246;50.620;7.232;2023-08-21T00:05:02;22.50;9.30
20174;DHT22;10246;50.620;7.232;2023-08-21T00:07:29;22.50;9.60
20174;DHT22;10246;50.620;7.232;2023-08-21T00:09:55;22.40;9.40
20174;DHT22;10246;50.620;7.232;2023-08-21T00:12:22;22.40;9.40
20174;DHT22;10246;50.620;7.232;2023-08-21T00:14:49;22.40;9.60
20174;DHT22;10246;50.620;7.232;2023-08-21T00:17:17;22.40;9.70
20174;DHT22;10246;50.620;7.232;2023-08-21T00:19:43;22.30;9.90
20174;DHT22;10246;50.620;7.232;2023-08-21T00:22:10;22.20;10.40
20174;DHT22;10246;50.620;7.232;2023-08-21T00:24:37;22.20;10.60
20174;DHT22;10246;50.620;7.232;2023-08-21T00:27:04;22.10;11.00
20174;DHT22;10246;50.620;7.232;2023-08-21T00:29:30;22.10;11.10
20174;DHT22;10246;50.620;7.232;2023-08-21T00:31:57;22.00;11.90
20174;DHT22;10246;50.620;7.232;2023-08-21T00:34:25;22.00;11.90
20174;DHT22;10246;50.620;7.232;2023-08-21T00:36:52;21.90;12.40
20174;DHT22;10246;50.620;7.232;2023-08-21T00:39:19;21.90;12.90
20174;DHT22;10246;50.620;7.232;2023-08-21T00:41:45;21.90;13.00
20174;DHT22;10246;50.620;7.232;2023-08-21T00:44:12;21.90;12.80
20174;DHT22;10246;50.620;7.232;2023-08-21T00:46:39;21.90;12.20
20174;DHT22;10246;50.620;7.232;2023-08-21T00:49:06;22.00;12.40
20174;DHT22;10246;50.620;7.232;2023-08-21T00:51:35;22.00;12.60
20174;DHT22;10246;50.620;7.232;2023-08-21T00:54:02;22.00;12.10
20174;DHT22;10246;50.620;7.232;2023-08-21T00:56:29;22.00;12.20
20174;DHT22;10246;50.620;7.232;2023-08-21T00:58:56;22.00;12.40
20174;DHT22;10246;50.620;7.232;2023-08-21T01:01:24;21.90;12.70
20174;DHT22;10246;50.620;7.232;2023-08-21T01:03:51;21.90;13.10
20174;DHT22;10246;50.620;7.232;2023-08-21T01:06:18;21.80;13.00
20174;DHT22;10246;50.620;7.232;2023-08-21T01:08:53;21.80;13.10
20174;DHT22;10246;50.620;7.232;2023-08-21T01:11:27;21.80;13.20
20174;DHT22;10246;50.620;7.232;2023-08-21T01:14:06;21.90;13.50
20174;DHT22;10246;50.620;7.232;2023-08-21T01:16:35;21.90;13.60
20174;DHT22;10246;50.620;7.232;2023-08-21T01:19:03;21.80;13.00
20174;DHT22;10246;50.620;7.232;2023-08-21T01:21:35;21.60;13.50
20174;DHT22;10246;50.620;7.232;2023-08-21T01:24:04;21.60;14.40
20174;DHT22;10246;50.620;7.232;2023-08-21T01:26:30;21.70;14.90
20174;DHT22;10246;50.620;7.232;2023-08-21T01:28:57;21.70;15.10
20174;DHT22;10246;50.620;7.232;2023-08-21T01:31:27;21.70;14.80
20174;DHT22;10246;50.620;7.232;2023-08-21T01:33:59;21.60;15.10
20174;DHT22;10246;50.620;7.232;2023-08-21T01:36:28;21.60;15.30
20174;DHT22;10246;50.620;7.232;2023-08-21T01:38:55;21.60;15.00
20174;DHT22;10246;50.620;7.232;2023-08-21T01:41:24;21.60;14.80
20174;DHT22;10246;50.620;7.232;2023-08-21T01:43:51;21.60;14.90
20174;DHT22;10246;50.620;7.232;2023-08-21T01:46:18;21.60;15.50
20174;DHT22;10246;50.620;7.232;2023-08-21T01:48:45;21.50;15.30
20174;DHT22;10246;50.620;7.232;2023-08-21T01:51:11;21.40;15.30
20174;DHT22;10246;50.620;7.232;2023-08-21T01:53:38;21.40;15.60
20174;DHT22;10246;50.620;7.232;2023-08-21T01:56:05;21.40;15.60
20174;DHT22;10246;50.620;7.232;2023-08-21T01:58:33;21.50;15.50
20174;DHT22;10246;50.620;7.232;2023-08-21T02:01:00;21.30;15.10
20174;DHT22;10246;50.620;7.232;2023-08-21T02:03:26;21.30;15.60
20174;DHT22;10246;50.620;7.232;2023-08-21T02:05:55;21.40;15.60
20174;DHT22;10246;50.620;7.232;2023-08-21T02:08:30;21.40;15.50
20174;DHT22;10246;50.620;7.232;2023-08-21T02:10:57;21.30;15.50
20174;DHT22;10246;50.620;7.232;2023-08-21T02:13:24;21.30;15.80
20174;DHT22;10246;50.620;7.232;2023-08-21T02:15:52;21.20;15.80
20174;DHT22;10246;50.620;7.232;2023-08-21T02:18:19;21.10;16.00
20174;DHT22;10246;50.620;7.232;2023-08-21T02:20:47;21.10;16.30
20174;DHT22;10246;50.620;7.232;2023-08-21T02:23:13;21.20;16.80
20174;DHT22;10246;50.620;7.232;2023-08-21T02:25:40;21.30;16.80
20174;DHT22;10246;50.620;7.232;2023-08-21T02:28:07;21.30;16.20
20174;DHT22;10246;50.620;7.232;2023-08-21T02:30:34;21.40;16.10
20174;DHT22;10246;50.620;7.232;2023-08-21T02:33:03;21.40;15.80
20174;DHT22;10246;50.620;7.232;2023-08-21T02:35:29;21.40;15.20
20174;DHT22;10246;50.620;7.232;2023-08-21T02:37:56;21.50;15.20
20174;DHT22;10246;50.620;7.232;2023-08-21T02:40:23;21.50;15.20
20174;DHT22;10246;50.620;7.232;2023-08-21T02:42:49;21.50;15.40
20174;DHT22;10246;50.620;7.232;2023-08-21T02:45:16;21.50;15.50
20174;DHT22;10246;50.620;7.232;2023-08-21T02:47:44;21.60;15.40
20174;DHT22;10246;50.620;7.232;2023-08-21T02:50:12;21.50;15.30
20174;DHT22;10246;50.620;7.232;2023-08-21T02:52:39;21.50;15.80
20174;DHT22;10246;50.620;7.232;2023-08-21T02:55:06;21.40;15.80
20174;DHT22;10246;50.620;7.232;2023-08-21T02:57:33;21.50;15.60
20174;DHT22;10246;50.620;7.232;2023-08-21T03:00:00;21.50;16.00
20174;DHT22;10246;50.620;7.232;2023-08-21T03:02:28;21.50;16.20
20174;DHT22;10246;50.620;7.232;2023-08-21T03:04:54;21.40;16.40
20174;DHT22;10246;50.620;7.232;2023-08-21T03:07:22;21.40;16.30
20174;DHT22;10246;50.620;7.232;2023-08-21T03:09:50;21.40;16.30
20174;DHT22;10246;50.620;7.232;2023-08-21T03:12:17;21.30;16.70
20174;DHT22;10246;50.620;7.232;2023-08-21T03:14:43;21.30;16.60
20174;DHT22;10246;50.620;7.232;2023-08-21T03:17:10;21.20;16.80
20174;DHT22;10246;50.620;7.232;2023-08-21T03:19:37;21.20;17.20
20174;DHT22;10246;50.620;7.232;2023-08-21T03:22:04;21.20;17.10
20174;DHT22;10246;50.620;7.232;2023-08-21T03:24:32;21.20;17.50
20174;DHT22;10246;50.620;7.232;2023-08-21T03:26:58;21.10;17.80
20174;DHT22;10246;50.620;7.232;2023-08-21T03:29:25;21.10;18.10
20174;DHT22;10246;50.620;7.232;2023-08-21T03:31:53;21.10;18.10
20174;DHT22;10246;50.620;7.232;2023-08-21T03:34:20;21.10;18.40
20174;DHT22;10246;50.620;7.232;2023-08-21T03:36:47;21.10;18.30
20174;DHT22;10246;50.620;7.232;2023-08-21T03:39:13;21.20;18.60
20174;DHT22;10246;50.620;7.232;2023-08-21T03:41:41;21.20;18.80
20174;DHT22;10246;50.620;7.232;2023-08-21T03:44:08;21.20;18.20
20174;DHT22;10246;50.620;7.232;2023-08-21T03:46:35;21.20;18.50
20174;DHT22;10246;50.620;7.232;2023-08-21T03:49:02;21.10;18.10
20174;DHT22;10246;50.620;7.232;2023-08-21T03:51:28;21.00;17.70
20174;DHT22;10246;50.620;7.232;2023-08-21T03:53:55;20.90;18.10
20174;DHT22;10246;50.620;7.232;2023-08-21T03:56:22;20.90;18.80
20174;DHT22;10246;50.620;7.232;2023-08-21T03:58:50;21.00;19.20
20174;DHT22;10246;50.620;7.232;2023-08-21T04:01:17;21.00;18.60
20174;DHT22;10246;50.620;7.232;2023-08-21T04:03:43;21.00;18.50
20174;DHT22;10246;50.620;7.232;2023-08-21T04:06:10;21.10;18.40
20174;DHT22;10246;50.620;7.232;2023-08-21T04:08:37;21.10;18.20
20174;DHT22;10246;50.620;7.232;2023-08-21T04:11:05;21.10;18.30
20174;DHT22;10246;50.620;7.232;2023-08-21T04:13:32;21.10;18.20
20174;DHT22;10246;50.620;7.232;2023-08-21T04:16:00;21.10;18.20
20174;DHT22;10246;50.620;7.232;2023-08-21T04:18:26;21.20;18.20
20174;DHT22;10246;50.620;7.232;2023-08-21T04:20:53;21.20;18.60
20174;DHT22;10246;50.620;7.232;2023-08-21T04:23:20;21.10;18.10
20174;DHT22;10246;50.620;7.232;2023-08-21T04:25:47;21.10;18.50
20174;DHT22;10246;50.620;7.232;2023-08-21T04:28:13;21.10;18.80
20174;DHT22;10246;50.620;7.232;2023-08-21T04:30:46;21.10;19.50
20174;DHT22;10246;50.620;7.232;2023-08-21T04:33:33;21.00;18.80
20174;DHT22;10246;50.620;7.232;2023-08-21T04:36:14;20.90;18.60
20174;DHT22;10246;50.620;7.232;2023-08-21T04:38:41;20.80;18.70
20174;DHT22;10246;50.620;7.232;2023-08-21T04:41:08;20.70;19.10
20174;DHT22;10246;50.620;7.232;2023-08-21T04:43:35;20.70;19.30
20174;DHT22;10246;50.620;7.232;2023-08-21T04:46:02;20.70;19.30
20174;DHT22;10246;50.620;7.232;2023-08-21T04:48:30;20.70;19.30
20174;DHT22;10246;50.620;7.232;2023-08-21T04:50:57;20.70;19.40
20174;DHT22;10246;50.620;7.232;2023-08-21T04:53:24;20.70;19.30
20174;DHT22;10246;50.620;7.232;2023-08-21T04:55:50;20.70;19.30
20174;DHT22;10246;50.620;7.232;2023-08-21T04:58:19;20.60;19.30
20174;DHT22;10246;50.620;7.232;2023-08-21T05:00:46;20.60;19.20
20174;DHT22;10246;50.620;7.232;2023-08-21T05:03:12;20.70;20.70
20174;DHT22;10246;50.620;7.232;2023-08-21T05:05:40;20.70;20.40
20174;DHT22;10246;50.620;7.232;2023-08-21T05:08:07;20.60;20.40
20174;DHT22;10246;50.620;7.232;2023-08-21T05:10:34;20.60;19.20
20174;DHT22;10246;50.620;7.232;2023-08-21T05:13:01;20.60;19.90
20174;DHT22;10246;50.620;7.232;2023-08-21T05:15:27;20.60;20.60
20174;DHT22;10246;50.620;7.232;2023-08-21T05:17:54;20.70;21.00
20174;DHT22;10246;50.620;7.232;2023-08-21T05:20:21;20.60;21.10
20174;DHT22;10246;50.620;7.232;2023-08-21T05:22:49;20.70;21.40
20174;DHT22;10246;50.620;7.232;2023-08-21T05:25:16;20.70;21.00
20174;DHT22;10246;50.620;7.232;2023-08-21T05:27:42;20.70;20.40
20174;DHT22;10246;50.620;7.232;2023-08-21T05:30:10;20.70;20.80
20174;DHT22;10246;50.620;7.232;2023-08-21T05:32:37;20.60;20.90
20174;DHT22;10246;50.620;7.232;2023-08-21T05:35:05;20.70;21.50
20174;DHT22;10246;50.620;7.232;2023-08-21T05:37:33;20.80;21.10
20174;DHT22;10246;50.620;7.232;2023-08-21T05:40:01;20.90;20.90
20174;DHT22;10246;50.620;7.232;2023-08-21T05:42:28;20.80;20.60
20174;DHT22;10246;50.620;7.232;2023-08-21T05:44:55;20.80;21.10
20174;DHT22;10246;50.620;7.232;2023-08-21T05:47:22;20.90;21.40
20174;DHT22;10246;50.620;7.232;2023-08-21T05:49:50;20.90;21.60
20174;DHT22;10246;50.620;7.232;2023-08-21T05:52:18;20.90;22.30
20174;DHT22;10246;50.620;7.232;2023-08-21T05:54:45;21.00;22.40
20174;DHT22;10246;50.620;7.232;2023-08-21T05:57:13;21.00;22.20
20174;DHT22;10246;50.620;7.232;2023-08-21T05:59:44;21.10;21.90
20174;DHT22;10246;50.620;7.232;2023-08-21T06:02:11;21.10;21.90
20174;DHT22;10246;50.620;7.232;2023-08-21T06:04:39;21.20;21.50
20174;DHT22;10246;50.620;7.232;2023-08-21T06:07:06;21.20;21.50
20174;DHT22;10246;50.620;7.232;2023-08-21T06:09:33;21.30;21.90
20174;DHT22;10246;50.620;7.232;2023-08-21T06:12:01;21.40;21.60
20174;DHT22;10246;50.620;7.232;2023-08-21T06:14:30;21.40;21.80
20174;DHT22;10246;50.620;7.232;2023-08-21T06:16:57;21.50;21.00
20174;DHT22;10246;50.620;7.232;2023-08-21T06:19:23;21.70;20.40
20174;DHT22;10246;50.620;7.232;2023-08-21T06:21:50;21.80;20.00
20174;DHT22;10246;50.620;7.232;2023-08-21T06:24:17;21.90;19.40
20174;DHT22;10246;50.620;7.232;2023-08-21T06:26:44;22.00;18.50
20174;DHT22;10246;50.620;7.232;2023-08-21T06:29:10;22.10;18.30
20174;DHT22;10246;50.620;7.232;2023-08-21T06:31:39;22.10;17.60
20174;DHT22;10246;50.620;7.232;2023-08-21T06:34:05;22.20;17.80
20174;DHT22;10246;50.620;7.232;2023-08-21T06:36:32;22.30;17.10
20174;DHT22;10246;50.620;7.232;2023-08-21T06:38:59;22.40;16.30
20174;DHT22;10246;50.620;7.232;2023-08-21T06:41:25;22.30;15.70
20174;DHT22;10246;50.620;7.232;2023-08-21T06:43:52;22.40;15.50
20174;DHT22;10246;50.620;7.232;2023-08-21T06:46:19;22.40;15.80
20174;DHT22;10246;50.620;7.232;2023-08-21T06:48:47;22.40;15.40
20174;DHT22;10246;50.620;7.232;2023-08-21T06:51:15;22.50;14.90
20174;DHT22;10246;50.620;7.232;2023-08-21T06:53:42;22.60;14.30
20174;DHT22;10246;50.620;7.232;2023-08-21T06:56:09;22.60;14.30
20174;DHT22;10246;50.620;7.232;2023-08-21T06:58:36;22.70;14.60
20174;DHT22;10246;50.620;7.232;2023-08-21T07:01:02;22.80;14.10
20174;DHT22;10246;50.620;7.232;2023-08-21T07:03:29;22.90;13.90
20174;DHT22;10246;50.620;7.232;2023-08-21T07:05:58;23.00;13.10
20174;DHT22;10246;50.620;7.232;2023-08-21T07:08:26;23.10;12.30
20174;DHT22;10246;50.620;7.232;2023-08-21T07:10:53;23.10;11.70
20174;DHT22;10246;50.620;7.232;2023-08-21T07:13:20;23.20;11.40
20174;DHT22;10246;50.620;7.232;2023-08-21T07:15:48;23.30;11.20
20174;DHT22;10246;50.620;7.232;2023-08-21T07:18:14;23.40;10.20
20174;DHT22;10246;50.620;7.232;2023-08-21T07:20:41;23.50;9.30
20174;DHT22;10246;50.620;7.232;2023-08-21T07:23:09;23.60;7.40
20174;DHT22;10246;50.620;7.232;2023-08-21T07:25:36;23.60;7.40
20174;DHT22;10246;50.620;7.232;2023-08-21T07:28:03;23.50;7.30
20174;DHT22;10246;50.620;7.232;2023-08-21T07:30:30;23.50;8.00
20174;DHT22;10246;50.620;7.232;2023-08-21T07:32:57;23.50;8.10
20174;DHT22;10246;50.620;7.232;2023-08-21T07:35:24;23.60;7.40
20174;DHT22;10246;50.620;7.232;2023-08-21T07:37:50;23.80;7.50
20174;DHT22;10246;50.620;7.232;2023-08-21T07:40:18;23.90;7.60
20174;DHT22;10246;50.620;7.232;2023-08-21T07:42:45;24.10;6.30
20174;DHT22;10246;50.620;7.232;2023-08-21T07:45:12;24.20;5.60
20174;DHT22;10246;50.620;7.232;2023-08-21T07:47:39;24.30;5.70
20174;DHT22;10246;50.620;7.232;2023-08-21T07:50:06;24.50;4.90
20174;DHT22;10246;50.620;7.232;2023-08-21T07:52:33;24.60;3.80
20174;DHT22;10246;50.620;7.232;2023-08-21T07:55:00;24.70;3.00
20174;DHT22;10246;50.620;7.232;2023-08-21T07:57:28;24.90;2.40
20174;DHT22;10246;50.620;7.232;2023-08-21T07:59:56;24.90;2.90
20174;DHT22;10246;50.620;7.232;2023-08-21T08:02:23;25.10;2.40
20174;DHT22;10246;50.620;7.232;2023-08-21T08:04:50;25.20;1.60
20174;DHT22;10246;50.620;7.232;2023-08-21T08:07:17;25.40;1.00
20174;DHT22;10246;50.620;7.232;2023-08-21T08:09:43;25.50;1.00
20174;DHT22;10246;50.620;7.232;2023-08-21T08:12:10;25.70;1.00
20174;DHT22;10246;50.620;7.232;2023-08-21T08:14:38;25.80;1.00
20174;DHT22;10246;50.620;7.232;2023-08-21T08:17:05;25.90;1.00
20174;DHT22;10246;50.620;7.232;2023-08-21T08:19:32;26.00;1.00
20174;DHT22;10246;50.620;7.232;2023-08-21T08:21:58;26.10;1.00
20174;DHT22;10246;50.620;7.232;2023-08-21T08:24:25;26.20;1.00
20174;DHT22;10246;50.620;7.232;2023-08-21T08:26:52;26.20;1.00
20174;DHT22;10246;50.620;7.232;2023-08-21T08:29:19;26.20;1.00
20174;DHT22;10246;50.620;7.232;2023-08-21T08:31:47;26.20;1.00
20174;DHT22;10246;50.620;7.232;2023-08-21T08:34:14;26.40;1.00
20174;DHT22;10246;50.620;7.232;2023-08-21T08:36:43;26.40;1.00
20174;DHT22;10246;50.620;7.232;2023-08-21T08:39:10;26.60;1.00
20174;DHT22;10246;50.620;7.232;2023-08-21T08:41:41;26.80;1.00
20174;DHT22;10246;50.620;7.232;2023-08-21T08:44:10;26.80;1.00
20174;DHT22;10246;50.620;7.232;2023-08-21T08:46:39;26.80;1.00
20174;DHT22;10246;50.620;7.232;2023-08-21T08:49:07;26.70;1.00
20174;DHT22;10246;50.620;7.232;2023-08-21T08:51:35;26.70;1.00
20174;DHT22;10246;50.620;7.232;2023-08-21T08:54:04;26.70;1.00
20174;DHT22;10246;50.620;7.232;2023-08-21T08:56:31;26.70;1.00
20174;DHT22;10246;50.620;7.232;2023-08-21T08:58:57;26.80;1.00
20174;DHT22;10246;50.620;7.232;2023-08-21T09:01:24;26.80;1.00
20174;DHT22;10246;50.620;7.232;2023-08-21T09:03:51;26.90;1.00
20174;DHT22;10246;50.620;7.232;2023-08-21T09:06:19;27.10;1.00
20174;DHT22;10246;50.620;7.232;2023-08-21T09:08:53;27.10;1.00
20174;DHT22;10246;50.620;7.232;2023-08-21T09:11:20;27.20;1.00
20174;DHT22;10246;50.620;7.232;2023-08-21T09:13:49;27.20;1.00
20174;DHT22;10246;50.620;7.232;2023-08-21T09:16:17;27.30;1.00
20174;DHT22;10246;50.620;7.232;2023-08-21T09:18:47;27.30;1.00
20174;DHT22;10246;50.620;7.232;2023-08-21T09:21:16;27.50;1.00
20174;DHT22;10246;50.620;7.232;2023-08-21T09:23:44;27.70;1.00
20174;DHT22;10246;50.620;7.232;2023-08-21T09:26:11;27.80;1.00
20174;DHT22;10246;50.620;7.232;2023-08-21T09:28:44;27.90;1.00
20174;DHT22;10246;50.620;7.232;2023-08-21T09:31:12;28.20;1.00
20174;DHT22;10246;50.620;7.232;2023-08-21T09:33:38;28.30;1.00
20174;DHT22;10246;50.620;7.232;2023-08-21T09:36:05;28.50;1.00
20174;DHT22;10246;50.620;7.232;2023-08-21T09:38:33;28.60;1.00
20174;DHT22;10246;50.620;7.232;2023-08-21T09:41:02;28.40;1.00
20174;DHT22;10246;50.620;7.232;2023-08-21T09:43:28;28.50;1.00
20174;DHT22;10246;50.620;7.232;2023-08-21T09:45:56;28.40;1.00
20174;DHT22;10246;50.620;7.232;2023-08-21T09:48:23;28.50;1.00
20174;DHT22;10246;50.620;7.232;2023-08-21T09:50:51;28.60;1.00
20174;DHT22;10246;50.620;7.232;2023-08-21T09:53:18;28.60;1.00
20174;DHT22;10246;50.620;7.232;2023-08-21T09:55:46;28.80;1.00
20174;DHT22;10246;50.620;7.232;2023-08-21T09:58:15;29.00;1.00
20174;DHT22;10246;50.620;7.232;2023-08-21T10:00:43;29.10;1.00
20174;DHT22;10246;50.620;7.232;2023-08-21T10:03:10;29.10;1.00
20174;DHT22;10246;50.620;7.232;2023-08-21T10:05:39;29.20;1.00
20174;DHT22;10246;50.620;7.232;2023-08-21T10:08:07;29.20;1.00
20174;DHT22;10246;50.620;7.232;2023-08-21T10:10:35;29.30;1.00
20174;DHT22;10246;50.620;7.232;2023-08-21T10:13:03;29.30;1.00
20174;DHT22;10246;50.620;7.232;2023-08-21T10:15:32;29.20;1.00
20174;DHT22;10246;50.620;7.232;2023-08-21T10:18:17;29.30;1.00
20174;DHT22;10246;50.620;7.232;2023-08-21T10:20:44;29.40;1.00
20174;DHT22;10246;50.620;7.232;2023-08-21T10:23:23;29.70;1.00
20174;DHT22;10246;50.620;7.232;2023-08-21T10:25:54;29.90;1.00
20174;DHT22;10246;50.620;7.232;2023-08-21T10:28:21;30.00;1.00
20174;DHT22;10246;50.620;7.232;2023-08-21T10:30:50;29.90;1.00
20174;DHT22;10246;50.620;7.232;2023-08-21T10:33:17;29.90;1.00
20174;DHT22;10246;50.620;7.232;2023-08-21T10:36:04;30.00;1.00
20174;DHT22;10246;50.620;7.232;2023-08-21T10:38:31;29.80;1.00
20174;DHT22;10246;50.620;7.232;2023-08-21T10:41:05;29.90;1.00
20174;DHT22;10246;50.620;7.232;2023-08-21T10:43:39;30.00;1.00
20174;DHT22;10246;50.620;7.232;2023-08-21T10:46:07;29.80;1.00
20174;DHT22;10246;50.620;7.232;2023-08-21T10:48:34;29.70;1.00
20174;DHT22;10246;50.620;7.232;2023-08-21T10:51:02;29.70;1.00
20174;DHT22;10246;50.620;7.232;2023-08-21T10:53:30;29.80;1.00
20174;DHT22;10246;50.620;7.232;2023-08-21T10:55:57;29.90;1.00
20174;DHT22;10246;50.620;7.232;2023-08-21T10:58:28;30.00;1.00
20174;DHT22;10246;50.620;7.232;2023-08-21T11:00:58;30.10;1.00
20174;DHT22;10246;50.620;7.232;2023-08-21T11:03:26;30.10;1.00
20174;DHT22;10246;50.620;7.232;2023-08-21T11:06:04;30.30;1.00
20174;DHT22;10246;50.620;7.232;2023-08-21T11:08:31;30.20;1.00
20174;DHT22;10246;50.620;7.232;2023-08-21T11:10:58;30.10;1.00
20174;DHT22;10246;50.620;7.232;2023-08-21T11:13:25;30.00;1.00
20174;DHT22;10246;50.620;7.232;2023-08-21T11:15:59;30.10;1.00
20174;DHT22;10246;50.620;7.232;2023-08-21T11:18:34;29.90;1.00
20174;DHT22;10246;50.620;7.232;2023-08-21T11:21:09;29.90;1.00
20174;DHT22;10246;50.620;7.232;2023-08-21T11:23:38;29.90;1.00
20174;DHT22;10246;50.620;7.232;2023-08-21T11:26:05;30.00;1.00
20174;DHT22;10246;50.620;7.232;2023-08-21T11:28:33;29.90;1.00
20174;DHT22;10246;50.620;7.232;2023-08-21T11:31:00;30.00;1.00
20174;DHT22;10246;50.620;7.232;2023-08-21T11:33:27;30.10;1.00
20174;DHT22;10246;50.620;7.232;2023-08-21T11:35:56;30.10;1.00
20174;DHT22;10246;50.620;7.232;2023-08-21T11:38:26;30.20;1.00
20174;DHT22;10246;50.620;7.232;2023-08-21T11:40:54;30.20;1.00
20174;DHT22;10246;50.620;7.232;2023-08-21T11:43:22;30.20;1.00
20174;DHT22;10246;50.620;7.232;2023-08-21T11:45:49;30.30;1.00
20174;DHT22;10246;50.620;7.232;2023-08-21T11:48:19;30.50;1.00
20174;DHT22;10246;50.620;7.232;2023-08-21T11:50:48;30.40;1.00
20174;DHT22;10246;50.620;7.232;2023-08-21T11:53:31;30.20;1.00
20174;DHT22;10246;50.620;7.232;2023-08-21T11:55:58;30.10;1.00
20174;DHT22;10246;50.620;7.232;2023-08-21T11:58:26;30.30;1.00
20174;DHT22;10246;50.620;7.232;2023-08-21T12:00:53;30.50;1.00
20174;DHT22;10246;50.620;7.232;2023-08-21T12:03:20;30.70;1.00
20174;DHT22;10246;50.620;7.232;2023-08-21T12:05:46;30.50;1.00
20174;DHT22;10246;50.620;7.232;2023-08-21T12:08:15;30.30;1.00
20174;DHT22;10246;50.620;7.232;2023-08-21T12:10:42;30.20;1.00
20174;DHT22;10246;50.620;7.232;2023-08-21T12:13:09;30.10;1.00
20174;DHT22;10246;50.620;7.232;2023-08-21T12:15:36;30.20;1.00
20174;DHT22;10246;50.620;7.232;2023-08-21T12:18:03;30.50;1.00
20174;DHT22;10246;50.620;7.232;2023-08-21T12:20:30;30.80;1.00
20174;DHT22;10246;50.620;7.232;2023-08-21T12:22:56;31.00;1.00
20174;DHT22;10246;50.620;7.232;2023-08-21T12:25:24;31.20;1.00
20174;DHT22;10246;50.620;7.232;2023-08-21T12:27:51;31.00;1.00
20174;DHT22;10246;50.620;7.232;2023-08-21T12:30:18;30.70;1.00
20174;DHT22;10246;50.620;7.232;2023-08-21T12:32:44;30.70;1.00
20174;DHT22;10246;50.620;7.232;2023-08-21T12:35:11;30.60;1.00
20174;DHT22;10246;50.620;7.232;2023-08-21T12:37:38;30.50;1.00
20174;DHT22;10246;50.620;7.232;2023-08-21T12:40:06;30.30;1.00
20174;DHT22;10246;50.620;7.232;2023-08-21T12:42:35;30.10;1.00
20174;DHT22;10246;50.620;7.232;2023-08-21T12:45:01;30.00;1.00
20174;DHT22;10246;50.620;7.232;2023-08-21T12:47:28;30.10;1.00
20174;DHT22;10246;50.620;7.232;2023-08-21T12:49:55;30.20;1.00
20174;DHT22;10246;50.620;7.232;2023-08-21T12:52:22;30.40;1.00
20174;DHT22;10246;50.620;7.232;2023-08-21T12:54:48;30.40;1.00
20174;DHT22;10246;50.620;7.232;2023-08-21T12:57:15;30.30;1.00
20174;DHT22;10246;50.620;7.232;2023-08-21T12:59:43;30.60;1.00
20174;DHT22;10246;50.620;7.232;2023-08-21T13:02:10;31.00;1.00
20174;DHT22;10246;50.620;7.232;2023-08-21T13:04:37;31.10;1.00
20174;DHT22;10246;50.620;7.232;2023-08-21T13:07:04;30.80;1.00
20174;DHT22;10246;50.620;7.232;2023-08-21T13:09:31;30.70;1.00
20174;DHT22;10246;50.620;7.232;2023-08-21T13:11:59;30.50;1.00
20174;DHT22;10246;50.620;7.232;2023-08-21T13:14:25;30.30;1.00
20174;DHT22;10246;50.620;7.232;2023-08-21T13:16:54;30.30;1.00
20174;DHT22;10246;50.620;7.232;2023-08-21T13:19:21;30.30;1.00
20174;DHT22;10246;50.620;7.232;2023-08-21T13:21:47;30.20;1.00
20174;DHT22;10246;50.620;7.232;2023-08-21T13:24:14;30.30;1.00
20174;DHT22;10246;50.620;7.232;2023-08-21T13:26:41;30.40;1.00
20174;DHT22;10246;50.620;7.232;2023-08-21T13:29:07;30.50;1.00
20174;DHT22;10246;50.620;7.232;2023-08-21T13:31:34;30.40;1.00
20174;DHT22;10246;50.620;7.232;2023-08-21T13:34:02;30.30;1.00
20174;DHT22;10246;50.620;7.232;2023-08-21T13:36:29;30.50;1.00
20174;DHT22;10246;50.620;7.232;2023-08-21T13:38:56;30.80;1.00
20174;DHT22;10246;50.620;7.232;2023-08-21T13:41:23;30.90;1.00
20174;DHT22;10246;50.620;7.232;2023-08-21T13:43:50;31.00;1.00
20174;DHT22;10246;50.620;7.232;2023-08-21T13:46:17;31.00;1.00
20174;DHT22;10246;50.620;7.232;2023-08-21T13:48:43;31.00;1.00
20174;DHT22;10246;50.620;7.232;2023-08-21T13:51:12;30.90;1.00
20174;DHT22;10246;50.620;7.232;2023-08-21T13:53:38;31.00;1.00
20174;DHT22;10246;50.620;7.232;2023-08-21T13:56:05;31.00;1.00
20174;DHT22;10246;50.620;7.232;2023-08-21T13:58:32;31.10;1.00
20174;DHT22;10246;50.620;7.232;2023-08-21T14:00:58;31.30;1.00
20174;DHT22;10246;50.620;7.232;2023-08-21T14:03:29;31.00;1.00
20174;DHT22;10246;50.620;7.232;2023-08-21T14:05:56;31.00;1.00
20174;DHT22;10246;50.620;7.232;2023-08-21T14:08:24;31.10;1.00
20174;DHT22;10246;50.620;7.232;2023-08-21T14:10:50;31.40;1.00
20174;DHT22;10246;50.620;7.232;2023-08-21T14:13:17;31.60;1.00
20174;DHT22;10246;50.620;7.232;2023-08-21T14:15:44;31.60;1.00
20174;DHT22;10246;50.620;7.232;2023-08-21T14:18:11;31.60;1.00
20174;DHT22;10246;50.620;7.232;2023-08-21T14:20:38;31.30;1.00
20174;DHT22;10246;50.620;7.232;2023-08-21T14:23:04;31.30;1.00
20174;DHT22;10246;50.620;7.232;2023-08-21T14:25:33;31.40;1.00
20174;DHT22;10246;50.620;7.232;2023-08-21T14:27:59;31.50;1.00
20174;DHT22;10246;50.620;7.232;2023-08-21T14:30:27;31.60;1.00
20174;DHT22;10246;50.620;7.232;2023-08-21T14:32:53;31.40;1.00
20174;DHT22;10246;50.620;7.232;2023-08-21T14:35:20;31.30;1.00
20174;DHT22;10246;50.620;7.232;2023-08-21T14:37:47;31.40;1.00
20174;DHT22;10246;50.620;7.232;2023-08-21T14:40:14;31.70;1.00
20174;DHT22;10246;50.620;7.232;2023-08-21T14:42:42;31.80;1.00
20174;DHT22;10246;50.620;7.232;2023-08-21T14:45:09;31.60;1.00
20174;DHT22;10246;50.620;7.232;2023-08-21T14:47:36;31.30;1.00
20174;DHT22;10246;50.620;7.232;2023-08-21T14:50:04;31.20;1.00
20174;DHT22;10246;50.620;7.232;2023-08-21T14:52:31;31.30;1.00
20174;DHT22;10246;50.620;7.232;2023-08-21T14:54:58;31.30;1.00
20174;DHT22;10246;50.620;7.232;2023-08-21T14:57:24;31.50;1.00
20174;DHT22;10246;50.620;7.232;2023-08-21T14:59:52;31.70;1.00
20174;DHT22;10246;50.620;7.232;2023-08-21T15:02:19;31.60;1.00
20174;DHT22;10246;50.620;7.232;2023-08-21T15:04:46;31.50;1.00
20174;DHT22;10246;50.620;7.232;2023-08-21T15:07:12;31.40;1.00
20174;DHT22;10246;50.620;7.232;2023-08-21T15:09:39;31.60;1.00
20174;DHT22;10246;50.620;7.232;2023-08-21T15:12:07;31.80;1.00
20174;DHT22;10246;50.620;7.232;2023-08-21T15:14:34;31.40;1.00
20174;DHT22;10246;50.620;7.232;2023-08-21T15:17:02;31.40;1.00
20174;DHT22;10246;50.620;7.232;2023-08-21T15:19:29;31.50;1.00
20174;DHT22;10246;50.620;7.232;2023-08-21T15:21:56;31.50;1.00
20174;DHT22;10246;50.620;7.232;2023-08-21T15:24:23;31.40;1.00
20174;DHT22;10246;50.620;7.232;2023-08-21T15:26:49;31.30;1.00
20174;DHT22;10246;50.620;7.232;2023-08-21T15:29:16;31.40;1.00
20174;DHT22;10246;50.620;7.232;2023-08-21T15:31:43;31.30;1.00
20174;DHT22;10246;50.620;7.232;2023-08-21T15:34:11;31.20;1.00
20174;DHT22;10246;50.620;7.232;2023-08-21T15:36:38;31.10;1.00
20174;DHT22;10246;50.620;7.232;2023-08-21T15:39:04;31.10;1.00
20174;DHT22;10246;50.620;7.232;2023-08-21T15:41:31;31.20;1.00